createdAt,value
2022-12-15T00:01:06.842Z,96770.69
2022-12-15T00:04:27.717Z,96778.06
2022-12-15T00:07:55.097Z,96786.75
2022-12-15T00:11:16.006Z,96786.50
2022-12-15T00:14:37.116Z,96806.09
2022-12-15T00:18:04.190Z,96808.72
2022-12-15T00:21:33.696Z,96813.06
2022-12-15T00:24:57.142Z,96802.16
2022-12-15T00:28:26.869Z,96814.66
2022-12-15T00:31:49.108Z,96818.22
2022-12-15T00:35:25.148Z,96824.63
2022-12-15T00:38:44.424Z,96821.13
2022-12-15T00:41:46.398Z,96814.31
2022-12-15T00:44:55.431Z,96812.63
2022-12-15T00:48:06.865Z,96833.28
2022-12-15T00:51:18.564Z,96824.19
2022-12-15T00:54:39.057Z,96824.44
2022-12-15T00:58:03.736Z,96861.47
2022-12-15T01:01:40.127Z,96873.66
2022-12-15T01:05:13.224Z,96879.22
2022-12-15T01:08:33.649Z,96879.44
2022-12-15T01:11:54.486Z,96881.38
2022-12-15T01:15:14.986Z,96889.81
2022-12-15T01:18:36.057Z,96875.03
2022-12-15T01:21:38.903Z,96858.47
2022-12-15T01:24:42.697Z,96862.97
2022-12-15T01:27:46.179Z,96871.84
2022-12-15T01:30:54.770Z,96861.25
2022-12-15T01:34:12.506Z,96871.66
2022-12-15T01:37:14.766Z,96867.94
2022-12-15T01:40:40.607Z,96873.91
2022-12-15T01:43:49.916Z,96882.16
2022-12-15T01:47:01.243Z,96883.19
2022-12-15T01:50:03.755Z,96879.03
2022-12-15T01:53:05.617Z,96884.19
2022-12-15T01:56:08.457Z,96890.91
2022-12-15T01:59:22.262Z,96890.78
2022-12-15T02:02:33.391Z,96885.00
2022-12-15T02:05:45.268Z,96895.53
2022-12-15T02:08:50.344Z,96889.75
2022-12-15T02:12:04.149Z,96888.50
2022-12-15T02:15:35.737Z,96881.50
2022-12-15T02:19:10.171Z,96876.13
2022-12-15T02:22:28.390Z,96880.16
2022-12-15T02:25:43.887Z,96877.00
2022-12-15T02:29:26.547Z,96883.88
2022-12-15T02:32:56.439Z,96901.28
2022-12-15T02:36:32.172Z,96903.97
2022-12-15T02:39:43.768Z,96909.31
2022-12-15T02:42:59.934Z,96905.19
2022-12-15T02:46:26.847Z,96907.66
2022-12-15T02:50:10.040Z,96913.88
2022-12-15T02:57:24.990Z,96924.19
2022-12-15T03:00:32.116Z,96918.81
2022-12-15T03:03:38.780Z,96918.91
2022-12-15T03:06:48.345Z,96923.44
2022-12-15T03:10:01.710Z,96925.59
2022-12-15T03:13:17.107Z,96931.38
2022-12-15T03:16:32.366Z,96925.94
2022-12-15T03:19:46.691Z,96924.41
2022-12-15T03:22:58.378Z,96920.28
2022-12-15T03:26:06.364Z,96924.00
2022-12-15T03:29:09.201Z,96933.16
2022-12-15T03:32:12.264Z,96946.44
2022-12-15T03:35:14.939Z,96945.09
2022-12-15T03:38:25.025Z,96951.66
2022-12-15T03:41:27.614Z,96939.72
2022-12-15T03:44:30.271Z,96938.56
2022-12-15T03:47:35.777Z,96948.66
2022-12-15T03:50:38.522Z,96952.09
2022-12-15T03:53:43.932Z,96943.13
2022-12-15T03:56:47.516Z,96953.94
2022-12-15T03:59:50.197Z,96963.09
2022-12-15T04:02:55.773Z,96959.59
2022-12-15T04:05:58.496Z,96967.03
2022-12-15T04:09:01.135Z,96956.31
2022-12-15T04:12:06.217Z,96971.97
2022-12-15T04:15:11.888Z,96972.81
2022-12-15T04:18:20.367Z,96999.19
2022-12-15T04:21:22.905Z,96983.50
2022-12-15T04:24:44.285Z,96995.47
2022-12-15T04:28:05.244Z,96992.78
2022-12-15T04:31:48.125Z,97000.13
2022-12-15T04:35:08.965Z,96995.47
2022-12-15T04:38:29.769Z,96993.31
2022-12-15T04:41:51.594Z,97005.06
2022-12-15T04:45:18.735Z,97018.56
2022-12-15T04:48:44.789Z,97013.69
2022-12-15T04:52:05.609Z,97024.94
2022-12-15T04:55:31.156Z,97041.84
2022-12-15T04:58:51.929Z,97034.44
2022-12-15T05:02:18.926Z,97047.53
2022-12-15T05:05:45.651Z,97054.50
2022-12-15T05:09:06.462Z,97062.25
2022-12-15T05:12:27.416Z,97061.03
2022-12-15T05:15:52.091Z,97076.06
2022-12-15T05:19:13.095Z,97081.44
2022-12-15T05:22:36.842Z,97084.81
2022-12-15T05:26:02.366Z,97084.53
2022-12-15T05:29:23.987Z,97088.66
2022-12-15T05:32:26.457Z,97091.31
2022-12-15T05:35:29.108Z,97088.53
2022-12-15T05:38:37.529Z,97088.84
2022-12-15T05:41:43.040Z,97102.34
2022-12-15T05:44:45.745Z,97105.97
2022-12-15T05:47:55.032Z,97113.38
2022-12-15T05:50:57.747Z,97132.97
2022-12-15T05:54:00.261Z,97129.25
2022-12-15T05:57:02.834Z,97124.81
2022-12-15T06:00:06.041Z,97141.63
2022-12-15T06:03:14.044Z,97146.75
2022-12-15T06:06:16.564Z,97158.19
2022-12-15T06:09:19.023Z,97160.00
2022-12-15T06:12:21.291Z,97166.50
2022-12-15T06:15:23.872Z,97172.28
2022-12-15T06:18:28.984Z,97179.03
2022-12-15T06:21:35.638Z,97183.97
2022-12-15T06:24:37.970Z,97175.97
2022-12-15T06:27:40.412Z,97169.59
2022-12-15T06:30:43.038Z,97171.53
2022-12-15T06:33:47.949Z,97176.88
2022-12-15T06:36:50.571Z,97183.34
2022-12-15T06:39:53.154Z,97205.59
2022-12-15T06:42:55.561Z,97201.91
2022-12-15T06:45:58.369Z,97196.38
2022-12-15T06:49:02.246Z,97203.94
2022-12-15T06:52:04.712Z,97203.31
2022-12-15T06:55:06.844Z,97213.13
2022-12-15T06:58:08.770Z,97212.03
2022-12-15T07:01:11.444Z,97223.91
2022-12-15T07:04:13.540Z,97225.59
2022-12-15T07:07:15.580Z,97235.72
2022-12-15T07:10:18.304Z,97238.03
2022-12-15T07:13:23.283Z,97231.88
2022-12-15T07:16:25.574Z,97229.22
2022-12-15T07:19:27.442Z,97225.91
2022-12-15T07:22:29.436Z,97229.63
2022-12-15T07:25:31.547Z,97239.72
2022-12-15T07:28:34.807Z,97241.81
2022-12-15T07:31:40.732Z,97249.66
2022-12-15T07:34:43.353Z,97244.56
2022-12-15T07:37:46.846Z,97244.34
2022-12-15T07:40:50.953Z,97247.38
2022-12-15T07:43:52.986Z,97241.53
2022-12-15T07:46:55.829Z,97252.66
2022-12-15T07:49:58.070Z,97252.75
2022-12-15T07:52:59.921Z,97260.50
2022-12-15T07:56:09.115Z,97260.94
2022-12-15T07:59:12.941Z,97253.69
2022-12-15T08:02:15.078Z,97263.38
2022-12-15T08:05:17.061Z,97262.38
2022-12-15T08:08:18.940Z,97275.41
2022-12-15T08:11:22.629Z,97265.06
2022-12-15T08:14:24.999Z,97272.47
2022-12-15T08:17:26.959Z,97277.34
2022-12-15T08:20:30.539Z,97283.22
2022-12-15T08:23:33.958Z,97294.53
2022-12-15T08:26:38.018Z,97287.22
2022-12-15T08:29:55.075Z,97289.06
2022-12-15T08:32:56.840Z,97286.81
2022-12-15T08:36:03.564Z,97280.63
2022-12-15T08:39:06.559Z,97305.09
2022-12-15T08:42:08.789Z,97305.91
2022-12-15T08:45:12.776Z,97312.59
2022-12-15T08:48:14.733Z,97316.97
2022-12-15T08:51:17.128Z,97314.63
2022-12-15T08:54:19.982Z,97326.31
2022-12-15T08:57:21.944Z,97327.28
2022-12-15T09:00:24.201Z,97325.59
2022-12-15T09:03:27.672Z,97323.16
2022-12-15T09:06:31.981Z,97318.59
2022-12-15T09:09:33.736Z,97327.47
2022-12-15T09:12:35.494Z,97326.31
2022-12-15T09:16:07.551Z,97319.41
2022-12-15T09:18:59.992Z,97320.25
2022-12-15T09:22:01.808Z,97325.19
2022-12-15T09:25:06.259Z,97314.34
2022-12-15T09:28:08.055Z,97314.34
2022-12-15T09:31:22.355Z,97316.47
2022-12-15T09:34:24.420Z,97313.41
2022-12-15T09:37:26.220Z,97320.72
2022-12-15T09:40:28.069Z,97307.75
2022-12-15T09:43:34.711Z,97308.91
2022-12-15T09:46:50.154Z,97308.47
2022-12-15T09:49:59.641Z,97292.91
2022-12-15T09:53:02.536Z,97299.03
2022-12-15T09:56:27.796Z,97291.72
2022-12-15T09:59:34.966Z,97301.53
2022-12-15T10:02:36.674Z,97302.00
2022-12-15T10:06:15.052Z,97309.53
2022-12-15T10:09:23.347Z,97307.84
2022-12-15T10:12:30.118Z,97297.13
2022-12-15T10:15:42.101Z,97318.72
2022-12-15T10:19:02.691Z,97313.75
2022-12-15T10:22:04.575Z,97321.28
2022-12-15T10:25:31.154Z,97308.97
2022-12-15T10:28:54.458Z,97310.56
2022-12-15T10:32:01.554Z,97308.75
2022-12-15T10:35:14.661Z,97310.09
2022-12-15T10:38:35.009Z,97307.44
2022-12-15T10:41:37.008Z,97310.84
2022-12-15T10:44:41.596Z,97308.16
2022-12-15T10:47:59.687Z,97319.56
2022-12-15T10:51:15.334Z,97334.75
2022-12-15T10:54:19.197Z,97338.91
2022-12-15T10:57:30.334Z,97344.41
2022-12-15T11:00:33.572Z,97342.94
2022-12-15T11:03:39.981Z,97341.31
2022-12-15T11:06:42.833Z,97343.69
2022-12-15T11:09:45.303Z,97335.84
2022-12-15T11:13:08.637Z,97323.34
2022-12-15T11:16:15.849Z,97324.19
2022-12-15T11:19:38.112Z,97331.72
2022-12-15T11:22:44.502Z,97326.50
2022-12-15T11:26:21.003Z,97332.19
2022-12-15T11:30:31.118Z,97322.00
2022-12-15T11:33:33.265Z,97330.59
2022-12-15T11:36:58.071Z,97326.06
2022-12-15T11:40:37.463Z,97312.84
2022-12-15T11:43:55.315Z,97341.09
2022-12-15T11:46:57.189Z,97326.06
2022-12-15T11:50:25.413Z,97311.81
2022-12-15T11:53:56.144Z,97307.44
2022-12-15T11:57:35.693Z,97311.06
2022-12-15T12:00:43.919Z,97299.38
2022-12-15T12:04:03.071Z,97311.97
2022-12-15T12:07:26.608Z,97317.88
2022-12-15T12:10:50.238Z,97320.78
2022-12-15T12:14:14.567Z,97324.84
2022-12-15T12:17:22.101Z,97327.19
2022-12-15T12:20:52.981Z,97329.44
2022-12-15T12:23:57.209Z,97319.50
2022-12-15T12:27:06.351Z,97301.88
2022-12-15T12:30:17.113Z,97310.94
2022-12-15T12:33:31.093Z,97315.28
2022-12-15T12:36:32.841Z,97318.97
2022-12-15T12:39:35.060Z,97318.91
2022-12-15T12:42:52.795Z,97310.00
2022-12-15T12:45:55.707Z,97308.78
2022-12-15T12:48:57.677Z,97306.66
2022-12-15T12:52:02.039Z,97301.56
2022-12-15T12:55:33.048Z,97312.00
2022-12-15T12:58:35.267Z,97306.63
2022-12-15T13:01:38.727Z,97300.03
2022-12-15T13:04:43.221Z,97299.50
2022-12-15T13:07:57.557Z,97313.25
2022-12-15T13:11:39.069Z,97331.28
2022-12-15T13:14:41.061Z,97335.50
2022-12-15T13:17:50.633Z,97340.63
2022-12-15T13:20:56.819Z,97333.06
2022-12-15T13:23:59.620Z,97345.69
2022-12-15T13:30:10.835Z,97359.81
2022-12-15T13:33:17.395Z,97361.28
2022-12-15T13:36:40.608Z,97359.06
2022-12-15T13:39:55.918Z,97352.72
2022-12-15T13:43:19.192Z,97348.78
2022-12-15T13:46:26.167Z,97345.25
2022-12-15T13:49:37.681Z,97343.69
2022-12-15T13:53:18.548Z,97346.94
2022-12-15T13:56:55.327Z,97368.91
2022-12-15T13:59:58.811Z,97381.13
2022-12-15T14:03:07.099Z,97389.53
2022-12-15T14:06:13.558Z,97405.16
2022-12-15T14:09:19.720Z,97410.09
2022-12-15T14:12:21.859Z,97406.78
2022-12-15T14:15:32.390Z,97419.00
2022-12-15T14:18:36.617Z,97425.88
2022-12-15T14:21:38.669Z,97438.09
2022-12-15T14:24:44.720Z,97425.84
2022-12-15T14:27:50.642Z,97414.41
2022-12-15T14:30:53.528Z,97417.19
2022-12-15T14:34:14.519Z,97408.75
2022-12-15T14:37:19.630Z,97393.00
2022-12-15T14:40:28.227Z,97388.53
2022-12-15T14:43:37.588Z,97394.66
2022-12-15T14:46:39.908Z,97383.09
2022-12-15T14:49:45.560Z,97375.34
2022-12-15T14:52:47.663Z,97367.91
2022-12-15T14:55:50.212Z,97381.34
2022-12-15T14:59:05.047Z,97390.44
2022-12-15T15:02:23.449Z,97394.66
2022-12-15T15:05:28.133Z,97399.69
2022-12-15T15:08:37.010Z,97397.66
2022-12-15T15:11:42.084Z,97392.63
2022-12-15T15:14:49.554Z,97402.34
2022-12-15T15:17:55.238Z,97410.19
2022-12-15T15:21:01.661Z,97404.72
2022-12-15T15:24:09.904Z,97416.38
2022-12-15T15:27:38.677Z,97414.41
2022-12-15T15:30:56.234Z,97403.97
2022-12-15T15:33:58.988Z,97400.97
2022-12-15T15:37:03.323Z,97400.56
2022-12-15T15:40:10.888Z,97394.38
2022-12-15T15:43:13.570Z,97389.41
2022-12-15T15:46:20.453Z,97380.81
2022-12-15T15:49:24.746Z,97391.06
2022-12-15T15:52:28.906Z,97389.72
2022-12-15T15:55:37.796Z,97386.41
2022-12-15T15:58:43.021Z,97395.81
2022-12-15T16:01:46.783Z,97384.44
2022-12-15T16:04:50.101Z,97374.53
2022-12-15T16:07:52.143Z,97350.88
2022-12-15T16:10:54.726Z,97325.66
2022-12-15T16:13:57.245Z,97314.41
2022-12-15T16:17:00.365Z,97315.88
2022-12-15T16:20:02.816Z,97319.88
2022-12-15T16:23:16.978Z,97327.16
2022-12-15T16:26:30.499Z,97332.31
2022-12-15T16:29:32.738Z,97339.56
2022-12-15T16:32:34.866Z,97349.06
2022-12-15T16:35:37.443Z,97351.34
2022-12-15T16:38:43.622Z,97347.09
2022-12-15T16:41:45.741Z,97370.75
2022-12-15T16:44:48.255Z,97380.88
2022-12-15T16:47:50.978Z,97374.47
2022-12-15T16:50:56.248Z,97390.81
2022-12-15T16:53:58.702Z,97401.41
2022-12-15T16:57:03.096Z,97383.47
2022-12-15T17:00:22.630Z,97375.53
2022-12-15T17:03:28.415Z,97360.94
2022-12-15T17:06:31.093Z,97353.84
2022-12-15T17:09:37.469Z,97354.13
2022-12-15T17:12:40.633Z,97374.53
2022-12-15T17:15:43.077Z,97371.13
2022-12-15T17:18:45.450Z,97361.09
2022-12-15T17:21:52.852Z,97364.22
2022-12-15T17:24:55.581Z,97355.44
2022-12-15T17:27:58.297Z,97374.19
2022-12-15T17:31:00.868Z,97382.16
2022-12-15T17:34:25.641Z,97374.06
2022-12-15T17:37:34.881Z,97360.25
2022-12-15T17:40:37.884Z,97356.66
2022-12-15T17:43:41.625Z,97345.97
2022-12-15T17:46:44.069Z,97337.88
2022-12-15T17:49:47.788Z,97339.16
2022-12-15T17:52:50.435Z,97350.94
2022-12-15T17:55:54.256Z,97343.69
2022-12-15T17:58:56.505Z,97335.22
2022-12-15T18:01:58.652Z,97343.91
2022-12-15T18:05:00.684Z,97326.50
2022-12-15T18:08:07.630Z,97341.94
2022-12-15T18:11:16.062Z,97340.53
2022-12-15T18:14:20.064Z,97338.75
2022-12-15T18:17:22.953Z,97338.19
2022-12-15T18:20:26.078Z,97340.53
2022-12-15T18:23:33.152Z,97325.22
2022-12-15T18:26:38.345Z,97325.22
2022-12-15T18:29:40.293Z,97328.25
2022-12-15T18:32:42.704Z,97333.28
2022-12-15T18:35:47.326Z,97334.56
2022-12-15T18:38:49.803Z,97340.94
2022-12-15T18:41:55.162Z,97338.06
2022-12-15T18:44:58.878Z,97339.00
2022-12-15T18:48:00.987Z,97335.59
2022-12-15T18:51:13.595Z,97339.22
2022-12-15T18:54:24.292Z,97334.78
2022-12-15T18:57:40.023Z,97343.94
2022-12-15T19:00:42.635Z,97359.22
2022-12-15T19:03:44.699Z,97360.25
2022-12-15T19:06:47.403Z,97358.22
2022-12-15T19:09:50.518Z,97347.25
2022-12-15T19:12:58.239Z,97342.94
2022-12-15T19:16:02.630Z,97345.72
2022-12-15T19:19:23.356Z,97335.81
2022-12-15T19:22:29.871Z,97342.31
2022-12-15T19:25:32.869Z,97338.38
2022-12-15T19:28:35.159Z,97343.34
2022-12-15T19:31:37.667Z,97342.28
2022-12-15T19:34:40.382Z,97348.47
2022-12-15T19:37:44.869Z,97341.44
2022-12-15T19:40:48.240Z,97320.97
2022-12-15T19:43:50.233Z,97319.31
2022-12-15T19:46:52.957Z,97326.22
2022-12-15T19:49:55.161Z,97321.38
2022-12-15T19:53:02.356Z,97321.06
2022-12-15T19:56:04.833Z,97314.09
2022-12-15T19:59:13.606Z,97296.09
2022-12-15T20:02:17.958Z,97297.84
2022-12-15T20:05:25.376Z,97288.75
2022-12-15T20:08:28.501Z,97295.13
2022-12-15T20:11:32.295Z,97298.06
2022-12-15T20:14:34.575Z,97289.81
2022-12-15T20:17:36.612Z,97285.94
2022-12-15T20:20:39.163Z,97279.50
2022-12-15T20:23:55.321Z,97259.53
2022-12-15T20:26:57.794Z,97246.56
2022-12-15T20:30:00.078Z,97244.09
2022-12-15T20:33:04.067Z,97256.16
2022-12-15T20:36:16.205Z,97253.53
2022-12-15T20:39:26.622Z,97252.72
2022-12-15T20:42:28.693Z,97248.75
2022-12-15T20:45:30.833Z,97251.94
2022-12-15T20:48:34.296Z,97253.66
2022-12-15T20:51:36.194Z,97261.78
2022-12-15T20:54:38.171Z,97251.50
2022-12-15T20:57:40.321Z,97241.94
2022-12-15T21:00:43.043Z,97243.31
2022-12-15T21:03:46.037Z,97231.16
2022-12-15T21:06:52.946Z,97226.22
2022-12-15T21:09:56.844Z,97232.25
2022-12-15T21:12:58.897Z,97226.47
2022-12-15T21:16:01.315Z,97228.94
2022-12-15T21:19:19.842Z,97213.44
2022-12-15T21:22:25.092Z,97201.84
2022-12-15T21:25:27.754Z,97205.63
2022-12-15T21:28:30.231Z,97191.13
2022-12-15T21:31:32.238Z,97205.13
2022-12-15T21:34:34.841Z,97199.22
2022-12-15T21:37:36.893Z,97206.63
2022-12-15T21:40:38.906Z,97204.78
2022-12-15T21:43:40.773Z,97197.94
2022-12-15T21:46:42.842Z,97192.97
2022-12-15T21:49:44.737Z,97201.47
2022-12-15T21:52:47.719Z,97199.38
2022-12-15T21:55:50.095Z,97191.56
2022-12-15T21:58:52.934Z,97182.72
2022-12-15T22:01:57.556Z,97180.03
2022-12-15T22:04:59.797Z,97189.78
2022-12-15T22:08:13.719Z,97178.69
2022-12-15T22:11:23.854Z,97174.25
2022-12-15T22:14:28.121Z,97169.03
2022-12-15T22:17:30.253Z,97161.56
2022-12-15T22:20:32.371Z,97160.75
2022-12-15T22:23:34.649Z,97152.28
2022-12-15T22:26:37.829Z,97148.16
2022-12-15T22:29:39.857Z,97135.72
2022-12-15T22:32:42.395Z,97145.28
2022-12-15T22:35:44.292Z,97138.78
2022-12-15T22:38:47.089Z,97143.41
2022-12-15T22:41:51.012Z,97134.81
2022-12-15T22:44:53.873Z,97124.53
2022-12-15T22:47:57.050Z,97123.06
2022-12-15T22:50:59.386Z,97126.00
2022-12-15T22:54:01.641Z,97115.72
2022-12-15T22:57:05.596Z,97108.50
2022-12-15T23:00:09.890Z,97122.69
2022-12-15T23:03:12.308Z,97126.31
2022-12-15T23:06:14.155Z,97122.50
2022-12-15T23:09:20.938Z,97121.34
2022-12-15T23:12:23.094Z,97125.28
2022-12-15T23:15:45.235Z,97121.66
2022-12-15T23:18:49.113Z,97120.56
2022-12-15T23:21:51.754Z,97109.16
2022-12-15T23:24:53.705Z,97103.81
2022-12-15T23:27:55.856Z,97097.31
2022-12-15T23:30:58.132Z,97100.06
2022-12-15T23:34:00.108Z,97098.59
2022-12-15T23:37:02.902Z,97087.22
2022-12-15T23:40:05.446Z,97083.69
2022-12-15T23:43:07.438Z,97081.41
2022-12-15T23:46:09.469Z,97079.44
2022-12-15T23:49:11.399Z,97073.00
2022-12-15T23:52:13.205Z,97065.50
2022-12-15T23:55:15.232Z,97059.75
2022-12-15T23:58:16.943Z,97057.59
